createdAt,value
2017-08-19T00:00:00.839Z,100411.67
2017-08-19T00:02:29.219Z,100415.53
2017-08-19T00:04:57.598Z,100414.31
2017-08-19T00:07:25.977Z,100423.25
2017-08-19T00:09:54.346Z,100424.34
2017-08-19T00:12:22.642Z,100433.94
2017-08-19T00:14:51.006Z,100435.99
2017-08-19T00:17:19.394Z,100448.22
2017-08-19T00:19:47.701Z,100447.67
2017-08-19T00:22:16.853Z,100448.78
2017-08-19T00:24:45.208Z,100447.00
2017-08-19T00:27:13.505Z,100450.01
2017-08-19T00:29:41.893Z,100455.64
2017-08-19T00:32:10.206Z,100453.72
2017-08-19T00:34:39.339Z,100457.83
2017-08-19T00:37:07.645Z,100461.28
2017-08-19T00:39:36.026Z,100460.20
2017-08-19T00:42:04.366Z,100462.39
2017-08-19T00:44:32.694Z,100458.95
2017-08-19T00:47:01.022Z,100466.36
2017-08-19T00:49:29.321Z,100468.58
2017-08-19T00:51:57.710Z,100474.59
2017-08-19T00:54:26.094Z,100476.66
2017-08-19T00:56:54.388Z,100476.36
2017-08-19T00:59:22.693Z,100483.52
2017-08-19T01:01:51.021Z,100474.84
2017-08-19T01:04:19.404Z,100470.73
2017-08-19T01:06:47.786Z,100458.28
2017-08-19T01:09:16.162Z,100461.95
2017-08-19T01:11:44.541Z,100458.39
2017-08-19T01:14:12.917Z,100453.72
2017-08-19T01:16:41.222Z,100454.02
2017-08-19T01:19:10.317Z,100450.02
2017-08-19T01:21:39.386Z,100451.13
2017-08-19T01:24:07.765Z,100451.67
2017-08-19T01:27:01.705Z,100452.59
2017-08-19T01:29:30.025Z,100462.47
2017-08-19T01:31:58.397Z,100463.25
2017-08-19T01:34:26.773Z,100466.14
2017-08-19T01:36:55.144Z,100474.67
2017-08-19T01:39:23.533Z,100480.28
2017-08-19T01:41:51.909Z,100476.21
2017-08-19T01:44:20.294Z,100472.91
2017-08-19T01:46:48.610Z,100477.33
2017-08-19T01:49:17.762Z,100480.63
2017-08-19T01:51:46.069Z,100478.03
2017-08-19T01:54:15.242Z,100482.70
2017-08-19T01:56:43.542Z,100486.81
2017-08-19T01:59:11.853Z,100503.81
2017-08-19T02:01:40.155Z,100502.47
2017-08-19T02:04:08.498Z,100509.58
2017-08-19T02:06:36.830Z,100513.84
2017-08-19T02:09:05.133Z,100512.34
2017-08-19T02:11:34.292Z,100513.59
2017-08-19T02:14:02.677Z,100511.81
2017-08-19T02:19:28.712Z,100513.02
2017-08-19T02:21:57.021Z,100514.00
2017-08-19T02:24:25.381Z,100514.13
2017-08-19T02:26:53.956Z,100520.72
2017-08-19T02:29:22.337Z,100516.31
2017-08-19T02:31:50.712Z,100519.74
2017-08-19T02:34:19.095Z,100522.06
2017-08-19T02:36:47.472Z,100514.80
2017-08-19T02:39:15.853Z,100517.01
2017-08-19T02:41:44.140Z,100527.84
2017-08-19T02:44:12.508Z,100528.38
2017-08-19T02:46:40.796Z,100534.55
2017-08-19T02:49:09.175Z,100533.16
2017-08-19T02:51:37.469Z,100542.09
2017-08-19T02:54:05.813Z,100544.81
2017-08-19T02:56:34.192Z,100540.72
2017-08-19T02:59:02.584Z,100550.30
2017-08-19T03:01:30.956Z,100544.53
2017-08-19T03:03:59.330Z,100544.80
2017-08-19T03:06:27.704Z,100543.86
2017-08-19T03:08:56.000Z,100549.59
2017-08-19T03:11:24.366Z,100550.54
2017-08-19T03:13:52.674Z,100560.53
2017-08-19T03:16:21.840Z,100558.51
2017-08-19T03:18:50.129Z,100560.14
2017-08-19T03:21:18.452Z,100559.47
2017-08-19T03:23:46.774Z,100556.18
2017-08-19T03:26:15.060Z,100555.62
2017-08-19T03:28:43.369Z,100547.12
2017-08-19T03:31:12.521Z,100550.13
2017-08-19T03:33:40.908Z,100549.30
2017-08-19T03:36:09.297Z,100561.98
2017-08-19T03:38:37.597Z,100566.77
2017-08-19T03:41:06.758Z,100570.87
2017-08-19T03:43:35.134Z,100577.70
2017-08-19T03:46:03.429Z,100582.22
2017-08-19T03:48:31.794Z,100583.70
2017-08-19T03:51:00.168Z,100587.37
2017-08-19T03:53:28.548Z,100586.41
2017-08-19T03:55:56.946Z,100589.80
2017-08-19T03:58:25.300Z,100598.81
2017-08-19T04:00:53.605Z,100599.90
2017-08-19T04:03:21.902Z,100602.75
2017-08-19T04:05:51.052Z,100606.27
2017-08-19T04:08:19.509Z,100611.31
2017-08-19T04:10:47.912Z,100607.50
2017-08-19T04:13:16.295Z,100606.66
2017-08-19T04:15:44.669Z,100608.14
2017-08-19T04:18:13.048Z,100611.43
2017-08-19T04:20:41.344Z,100618.38
2017-08-19T04:23:09.705Z,100614.58
2017-08-19T04:25:38.080Z,100614.05
2017-08-19T04:28:06.461Z,100620.36
2017-08-19T04:30:34.841Z,100619.94
2017-08-19T04:33:03.224Z,100623.66
2017-08-19T04:35:31.517Z,100624.64
2017-08-19T04:37:59.805Z,100627.69
2017-08-19T04:40:28.970Z,100628.41
2017-08-19T04:42:57.361Z,100628.16
2017-08-19T04:45:25.804Z,100625.59
2017-08-19T04:47:54.215Z,100619.59
2017-08-19T04:50:22.529Z,100632.63
2017-08-19T04:52:51.691Z,100630.64
2017-08-19T04:55:20.064Z,100624.77
2017-08-19T04:57:48.398Z,100629.70
2017-08-19T05:00:16.690Z,100633.44
2017-08-19T05:02:45.003Z,100640.57
2017-08-19T05:05:13.316Z,100642.50
2017-08-19T05:07:42.469Z,100650.47
2017-08-19T05:10:10.849Z,100645.41
2017-08-19T05:12:39.158Z,100653.65
2017-08-19T05:15:08.224Z,100656.27
2017-08-19T05:17:36.603Z,100654.63
2017-08-19T05:20:04.977Z,100661.63
2017-08-19T05:22:33.277Z,100658.05
2017-08-19T05:25:01.636Z,100659.69
2017-08-19T05:27:30.013Z,100653.35
2017-08-19T05:29:58.313Z,100659.92
2017-08-19T05:32:26.607Z,100669.08
2017-08-19T05:34:55.759Z,100665.73
2017-08-19T05:37:24.049Z,100666.39
2017-08-19T05:39:52.417Z,100668.42
2017-08-19T05:42:20.793Z,100672.23
2017-08-19T05:44:49.130Z,100669.75
2017-08-19T05:47:17.425Z,100678.75
2017-08-19T05:49:45.726Z,100684.03
2017-08-19T05:52:14.033Z,100683.98
2017-08-19T05:54:43.201Z,100685.46
2017-08-19T05:57:11.504Z,100693.12
2017-08-19T05:59:39.863Z,100697.31
2017-08-19T06:02:08.241Z,100698.17
2017-08-19T06:04:36.541Z,100705.61
2017-08-19T06:07:04.845Z,100697.94
2017-08-19T06:09:33.174Z,100702.00
2017-08-19T06:12:01.546Z,100707.87
2017-08-19T06:14:29.848Z,100712.61
2017-08-19T06:16:58.201Z,100720.08
2017-08-19T06:19:26.545Z,100725.86
2017-08-19T06:21:54.861Z,100734.63
2017-08-19T06:24:23.167Z,100728.27
2017-08-19T06:26:52.329Z,100740.53
2017-08-19T06:29:20.629Z,100735.17
2017-08-19T06:31:48.921Z,100742.31
2017-08-19T06:34:18.076Z,100741.01
2017-08-19T06:36:46.470Z,100746.34
2017-08-19T06:39:14.813Z,100751.39
2017-08-19T06:41:43.141Z,100749.27
2017-08-19T06:44:11.436Z,100754.75
2017-08-19T06:46:40.594Z,100758.94
2017-08-19T06:49:08.970Z,100762.10
2017-08-19T06:51:37.340Z,100759.20
2017-08-19T06:54:05.717Z,100762.63
2017-08-19T06:56:34.020Z,100764.98
2017-08-19T06:59:02.376Z,100764.30
2017-08-19T07:01:30.680Z,100761.70
2017-08-19T07:03:59.032Z,100771.18
2017-08-19T07:06:27.374Z,100776.31
2017-08-19T07:08:55.691Z,100783.17
2017-08-19T07:11:24.069Z,100784.75
2017-08-19T07:13:52.448Z,100784.17
2017-08-19T07:16:20.825Z,100788.48
2017-08-19T07:18:49.138Z,100785.91
2017-08-19T07:21:18.301Z,100797.55
2017-08-19T07:23:46.608Z,100800.16
2017-08-19T07:26:15.690Z,100797.80
2017-08-19T07:28:44.050Z,100804.45
2017-08-19T07:31:12.430Z,100802.05
2017-08-19T07:33:40.757Z,100799.72
2017-08-19T07:36:09.080Z,100800.20
2017-08-19T07:38:37.456Z,100808.14
2017-08-19T07:41:05.833Z,100815.01
2017-08-19T07:43:34.128Z,100817.34
2017-08-19T07:46:02.497Z,100824.92
2017-08-19T07:48:30.793Z,100835.59
2017-08-19T07:50:59.100Z,100841.92
2017-08-19T07:53:27.391Z,100843.31
2017-08-19T07:55:55.692Z,100839.01
2017-08-19T07:58:23.995Z,100842.81
2017-08-19T08:00:52.358Z,100842.77
2017-08-19T08:03:20.661Z,100844.20
2017-08-19T08:05:48.956Z,100842.50
2017-08-19T08:08:18.112Z,100842.11
2017-08-19T08:10:46.489Z,100835.52
2017-08-19T08:13:14.818Z,100837.93
2017-08-19T08:15:43.121Z,100828.05
2017-08-19T08:18:11.413Z,100835.62
2017-08-19T08:20:39.720Z,100840.08
2017-08-19T08:23:08.036Z,100836.84
2017-08-19T08:25:36.349Z,100832.78
2017-08-19T08:28:04.728Z,100828.27
2017-08-19T08:30:33.105Z,100838.14
2017-08-19T08:33:01.399Z,100834.68
2017-08-19T08:35:29.717Z,100826.80
2017-08-19T08:37:58.139Z,100827.31
2017-08-19T08:40:26.519Z,100832.80
2017-08-19T08:42:54.897Z,100821.89
2017-08-19T08:45:23.273Z,100827.40
2017-08-19T08:47:51.573Z,100828.14
2017-08-19T08:50:19.939Z,100822.09
2017-08-19T08:52:48.317Z,100822.96
2017-08-19T08:55:16.614Z,100811.59
2017-08-19T08:57:44.973Z,100812.25
2017-08-19T09:00:13.445Z,100812.34
2017-08-19T09:02:41.783Z,100815.46
2017-08-19T09:05:10.181Z,100815.88
2017-08-19T09:07:38.477Z,100825.52
2017-08-19T09:10:06.869Z,100820.94
2017-08-19T09:12:35.162Z,100819.77
2017-08-19T09:15:03.512Z,100826.45
2017-08-19T09:17:31.898Z,100836.54
2017-08-19T09:20:00.199Z,100837.20
2017-08-19T09:22:28.549Z,100845.45
2017-08-19T09:24:56.844Z,100849.83
2017-08-19T09:27:25.204Z,100854.18
2017-08-19T09:29:53.584Z,100861.44
2017-08-19T09:32:21.964Z,100866.36
2017-08-19T09:34:50.348Z,100863.96
2017-08-19T09:37:18.717Z,100869.05
2017-08-19T09:39:47.105Z,100867.19
2017-08-19T09:42:15.488Z,100872.52
2017-08-19T09:44:43.857Z,100869.63
2017-08-19T09:47:12.153Z,100869.38
2017-08-19T09:49:40.509Z,100868.82
2017-08-19T09:52:08.889Z,100866.52
2017-08-19T09:54:37.264Z,100866.06
2017-08-19T09:57:05.646Z,100867.59
2017-08-19T09:59:34.026Z,100867.23
2017-08-19T10:02:02.405Z,100863.81
2017-08-19T10:04:30.860Z,100864.05
2017-08-19T10:06:59.161Z,100865.73
2017-08-19T10:09:41.065Z,100860.83
2017-08-19T10:12:09.441Z,100866.66
2017-08-19T10:14:37.891Z,100868.22
2017-08-19T10:17:06.192Z,100864.95
2017-08-19T10:19:34.487Z,100862.78
2017-08-19T10:22:02.795Z,100859.24
2017-08-19T10:24:31.089Z,100861.30
2017-08-19T10:26:59.504Z,100851.73
2017-08-19T10:29:27.884Z,100850.63
2017-08-19T10:31:56.261Z,100843.44
2017-08-19T10:34:24.645Z,100843.04
2017-08-19T10:36:52.943Z,100849.11
2017-08-19T10:39:21.298Z,100841.15
2017-08-19T10:41:49.597Z,100838.31
2017-08-19T10:44:17.954Z,100850.72
2017-08-19T10:46:46.325Z,100846.19
2017-08-19T10:49:14.714Z,100840.54
2017-08-19T10:51:43.085Z,100837.67
2017-08-19T10:54:11.463Z,100841.64
2017-08-19T10:56:39.844Z,100835.35
2017-08-19T10:59:08.229Z,100836.87
2017-08-19T11:01:36.635Z,100846.81
2017-08-19T11:04:05.696Z,100832.44
2017-08-19T11:06:34.074Z,100830.42
2017-08-19T11:09:02.377Z,100837.75
2017-08-19T11:11:30.684Z,100838.62
2017-08-19T11:13:58.997Z,100826.78
2017-08-19T11:16:27.358Z,100841.84
2017-08-19T11:18:55.657Z,100842.73
2017-08-19T11:21:29.877Z,100846.13
2017-08-19T11:23:58.357Z,100849.19
2017-08-19T11:26:26.653Z,100852.59
2017-08-19T11:28:54.960Z,100857.95
2017-08-19T11:31:24.082Z,100847.91
2017-08-19T11:33:52.484Z,100846.56
2017-08-19T11:36:20.774Z,100853.17
2017-08-19T11:38:49.073Z,100854.59
2017-08-19T11:41:18.129Z,100850.62
2017-08-19T11:43:46.513Z,100854.33
2017-08-19T11:46:14.893Z,100859.77
2017-08-19T11:48:43.269Z,100858.21
2017-08-19T11:51:11.653Z,100860.70
2017-08-19T11:53:40.024Z,100858.70
2017-08-19T11:56:08.413Z,100866.13
2017-08-19T11:58:36.713Z,100867.39
2017-08-19T12:01:05.064Z,100868.33
2017-08-19T12:03:33.545Z,100867.13
2017-08-19T12:06:01.921Z,100871.78
2017-08-19T12:08:30.214Z,100871.25
2017-08-19T12:10:58.513Z,100876.59
2017-08-19T12:13:27.681Z,100871.58
2017-08-19T12:15:56.011Z,100873.73
2017-08-19T12:18:24.325Z,100870.64
2017-08-19T12:20:52.705Z,100871.61
2017-08-19T12:23:21.081Z,100870.13
2017-08-19T12:25:49.538Z,100872.02
2017-08-19T12:28:17.845Z,100875.47
2017-08-19T12:30:46.161Z,100882.03
2017-08-19T12:33:15.312Z,100873.76
2017-08-19T12:35:43.709Z,100871.72
2017-08-19T12:38:12.080Z,100878.17
2017-08-19T12:40:40.388Z,100873.09
2017-08-19T12:43:09.559Z,100876.25
2017-08-19T12:45:37.925Z,100880.00
2017-08-19T12:48:06.217Z,100877.33
2017-08-19T12:50:34.569Z,100877.48
2017-08-19T12:53:02.970Z,100869.28
2017-08-19T12:55:31.277Z,100875.39
2017-08-19T12:58:00.438Z,100870.59
2017-08-19T13:00:28.769Z,100875.70
2017-08-19T13:02:57.061Z,100875.62
2017-08-19T13:05:25.365Z,100876.94
2017-08-19T13:07:53.756Z,100876.61
2017-08-19T13:10:22.131Z,100867.25
2017-08-19T13:12:50.505Z,100877.69
2017-08-19T13:15:18.885Z,100876.03
2017-08-19T13:17:47.214Z,100873.73
2017-08-19T13:20:15.505Z,100871.90
2017-08-19T13:22:43.797Z,100873.97
2017-08-19T13:25:12.189Z,100875.06
2017-08-19T13:27:40.502Z,100872.22
2017-08-19T13:30:09.588Z,100867.03
2017-08-19T13:32:37.951Z,100868.70
2017-08-19T13:35:06.321Z,100869.69
2017-08-19T13:37:34.629Z,100873.19
2017-08-19T13:40:02.976Z,100875.58
2017-08-19T13:42:31.358Z,100880.20
2017-08-19T13:44:59.649Z,100876.98
2017-08-19T13:47:27.937Z,100883.08
2017-08-19T13:49:56.386Z,100880.75
2017-08-19T13:52:24.771Z,100875.62
2017-08-19T13:54:53.157Z,100878.48
2017-08-19T13:57:21.455Z,100884.70
2017-08-19T13:59:50.632Z,100881.89
2017-08-19T14:02:18.933Z,100881.20
2017-08-19T14:04:48.097Z,100879.06
2017-08-19T14:07:16.429Z,100880.61
2017-08-19T14:09:44.731Z,100887.41
2017-08-19T14:12:13.129Z,100893.36
2017-08-19T14:14:41.437Z,100888.80
2017-08-19T14:17:09.796Z,100892.14
2017-08-19T14:19:38.117Z,100894.67
2017-08-19T14:22:06.440Z,100888.14
2017-08-19T14:24:34.821Z,100892.77
2017-08-19T14:27:03.201Z,100889.44
2017-08-19T14:29:31.588Z,100890.46
2017-08-19T14:31:59.909Z,100894.08
2017-08-19T14:34:28.196Z,100893.14
2017-08-19T14:36:56.508Z,100899.05
2017-08-19T14:39:24.890Z,100897.88
2017-08-19T14:41:53.269Z,100892.89
2017-08-19T14:44:21.640Z,100889.68
2017-08-19T14:46:50.024Z,100896.48
2017-08-19T14:49:18.317Z,100894.13
2017-08-19T14:51:46.681Z,100896.34
2017-08-19T14:54:14.975Z,100892.69
2017-08-19T14:56:43.340Z,100891.42
2017-08-19T14:59:11.708Z,100890.55
2017-08-19T15:01:40.001Z,100889.59
2017-08-19T15:04:08.305Z,100885.08
2017-08-19T15:06:37.369Z,100882.33
2017-08-19T15:09:05.702Z,100883.80
2017-08-19T15:11:33.996Z,100887.59
2017-08-19T15:14:02.293Z,100885.83
2017-08-19T15:16:30.616Z,100886.95
2017-08-19T15:18:59.770Z,100889.71
2017-08-19T15:21:28.145Z,100881.76
2017-08-19T15:23:56.438Z,100893.34
2017-08-19T15:26:24.732Z,100892.23
2017-08-19T15:28:53.801Z,100886.11
2017-08-19T15:31:22.169Z,100868.56
2017-08-19T15:33:50.549Z,100891.43
2017-08-19T15:36:18.928Z,100881.55
2017-08-19T15:38:47.225Z,100893.09
2017-08-19T15:41:15.589Z,100893.33
2017-08-19T15:43:43.897Z,100891.75
2017-08-19T15:46:12.224Z,100892.99
2017-08-19T15:48:40.513Z,100891.06
2017-08-19T15:51:08.908Z,100893.20
2017-08-19T15:53:37.279Z,100892.00
2017-08-19T15:56:05.573Z,100886.91
2017-08-19T15:58:33.925Z,100891.77
2017-08-19T16:01:02.227Z,100884.55
2017-08-19T16:03:30.589Z,100887.95
2017-08-19T16:05:58.966Z,100895.59
2017-08-19T16:08:27.338Z,100884.50
2017-08-19T16:10:55.660Z,100880.93
2017-08-19T16:13:24.717Z,100874.91
2017-08-19T16:15:53.096Z,100884.63
2017-08-19T16:18:21.393Z,100880.37
2017-08-19T16:20:49.696Z,100884.84
2017-08-19T16:23:18.125Z,100885.31
2017-08-19T16:25:46.416Z,100883.56
2017-08-19T16:28:14.708Z,100883.86
2017-08-19T16:30:43.012Z,100887.20
2017-08-19T16:33:11.362Z,100888.22
2017-08-19T16:35:39.685Z,100887.04
2017-08-19T16:38:07.981Z,100886.47
2017-08-19T16:40:36.276Z,100892.67
2017-08-19T16:43:04.664Z,100891.09
2017-08-19T16:45:33.028Z,100888.70
2017-08-19T16:48:01.397Z,100887.42
2017-08-19T16:50:29.780Z,100889.38
2017-08-19T16:52:58.068Z,100893.42
2017-08-19T16:55:26.433Z,100890.02
2017-08-19T16:57:54.809Z,100894.83
2017-08-19T17:00:23.128Z,100901.77
2017-08-19T17:02:52.185Z,100895.09
2017-08-19T17:05:20.482Z,100897.53
2017-08-19T17:07:48.841Z,100899.86
2017-08-19T17:10:17.128Z,100897.08
2017-08-19T17:12:45.448Z,100895.88
2017-08-19T17:15:13.778Z,100905.56
2017-08-19T17:17:42.068Z,100893.31
2017-08-19T17:20:10.433Z,100896.41
2017-08-19T17:22:38.721Z,100898.98
2017-08-19T17:25:07.094Z,100902.11
2017-08-19T17:27:35.385Z,100896.68
2017-08-19T17:30:03.742Z,100901.61
2017-08-19T17:32:32.044Z,100894.88
2017-08-19T17:35:01.106Z,100895.09
2017-08-19T17:37:29.501Z,100903.66
2017-08-19T17:39:57.860Z,100903.52
2017-08-19T17:42:26.248Z,100904.97
2017-08-19T17:44:54.556Z,100902.66
2017-08-19T17:47:23.723Z,100907.47
2017-08-19T17:49:52.100Z,100911.52
2017-08-19T17:52:20.502Z,100916.72
2017-08-19T17:54:48.863Z,100920.16
2017-08-19T17:57:17.172Z,100919.16
2017-08-19T17:59:46.236Z,100919.57
2017-08-19T18:02:14.557Z,100922.55
2017-08-19T18:04:42.885Z,100922.64
2017-08-19T18:07:11.182Z,100931.95
2017-08-19T18:09:39.485Z,100935.58
2017-08-19T18:12:09.573Z,100936.78
2017-08-19T18:14:37.932Z,100935.94
2017-08-19T18:17:06.221Z,100947.33
2017-08-19T18:19:34.696Z,100944.78
2017-08-19T18:22:03.073Z,100948.86
2017-08-19T18:24:31.365Z,100952.49
2017-08-19T18:26:59.728Z,100960.95
2017-08-19T18:29:28.101Z,100961.28
2017-08-19T18:31:56.484Z,100950.58
2017-08-19T18:34:24.789Z,100960.54
2017-08-19T18:36:53.853Z,100954.33
2017-08-19T18:39:22.149Z,100965.75
2017-08-19T18:41:50.506Z,100963.30
2017-08-19T18:44:18.888Z,100967.20
2017-08-19T18:46:47.183Z,100966.15
2017-08-19T18:49:15.540Z,100969.22
2017-08-19T18:51:43.916Z,100961.30
2017-08-19T18:54:12.232Z,100974.25
2017-08-19T18:56:41.405Z,100980.22
2017-08-19T18:59:09.692Z,100980.94
2017-08-19T19:01:37.999Z,100982.85
2017-08-19T19:04:06.329Z,100987.69
2017-08-19T19:06:34.625Z,100986.20
2017-08-19T19:09:02.914Z,100989.77
2017-08-19T19:11:31.977Z,100990.59
2017-08-19T19:14:00.265Z,100994.61
2017-08-19T19:16:28.580Z,100987.91
2017-08-19T19:18:56.878Z,100990.52
2017-08-19T19:21:25.196Z,101000.98
2017-08-19T19:23:53.491Z,101008.55
2017-08-19T19:26:22.549Z,101010.77
2017-08-19T19:28:50.848Z,101006.91
2017-08-19T19:31:19.184Z,101013.80
2017-08-19T19:33:47.493Z,101015.70
2017-08-19T19:36:15.784Z,101023.37
2017-08-19T19:38:44.100Z,101021.16
2017-08-19T19:41:12.408Z,101022.52
2017-08-19T19:43:40.722Z,101027.84
2017-08-19T19:46:09.790Z,101027.98
2017-08-19T19:48:38.083Z,101031.39
2017-08-19T19:51:06.404Z,101029.77
2017-08-19T19:53:34.708Z,101033.64
2017-08-19T19:56:03.025Z,101039.56
2017-08-19T19:58:31.338Z,101048.78
2017-08-19T20:00:59.652Z,101053.61
2017-08-19T20:03:27.966Z,101056.36
2017-08-19T20:05:57.039Z,101058.44
2017-08-19T20:08:25.344Z,101068.09
2017-08-19T20:10:54.489Z,101069.19
2017-08-19T20:13:22.780Z,101074.28
2017-08-19T20:15:51.129Z,101064.52
2017-08-19T20:18:19.433Z,101077.58
2017-08-19T20:20:47.736Z,101089.22
2017-08-19T20:23:16.045Z,101090.86
2017-08-19T20:25:44.342Z,101083.56
2017-08-19T20:28:12.640Z,101093.83
2017-08-19T20:30:40.933Z,101096.19
2017-08-19T20:33:09.269Z,101095.61
2017-08-19T20:35:37.565Z,101102.05
2017-08-19T20:38:05.951Z,101112.79
2017-08-19T20:40:34.341Z,101104.00
2017-08-19T20:43:02.707Z,101105.00
2017-08-19T20:45:31.090Z,101102.96
2017-08-19T20:47:59.472Z,101109.19
2017-08-19T20:50:27.845Z,101104.52
2017-08-19T20:52:56.161Z,101111.10
2017-08-19T20:55:25.256Z,101112.77
2017-08-19T20:57:54.421Z,101109.99
2017-08-19T21:00:22.792Z,101109.86
2017-08-19T21:02:51.168Z,101110.30
2017-08-19T21:05:19.457Z,101107.67
2017-08-19T21:07:47.765Z,101098.58
2017-08-19T21:10:16.096Z,101109.72
2017-08-19T21:12:44.419Z,101107.91
2017-08-19T21:15:14.304Z,101105.85
2017-08-19T21:17:42.616Z,101108.16
2017-08-19T21:20:11.691Z,101103.59
2017-08-19T21:22:40.041Z,101103.44
2017-08-19T21:25:08.348Z,101107.38
2017-08-19T21:27:36.697Z,101108.30
2017-08-19T21:30:05.072Z,101114.70
2017-08-19T21:32:33.358Z,101109.42
2017-08-19T21:35:01.657Z,101118.86
2017-08-19T21:37:30.012Z,101116.89
2017-08-19T21:39:58.393Z,101115.05
2017-08-19T21:42:26.700Z,101112.38
2017-08-19T21:44:55.873Z,101113.22
2017-08-19T21:47:24.187Z,101111.84
2017-08-19T21:49:53.351Z,101109.06
2017-08-19T21:52:21.694Z,101105.48
2017-08-19T21:54:50.088Z,101094.63
2017-08-19T21:57:18.469Z,101091.98
2017-08-19T21:59:46.850Z,101094.98
2017-08-19T22:02:15.169Z,101096.06
2017-08-19T22:04:44.336Z,101096.36
2017-08-19T22:07:12.637Z,101098.84
2017-08-19T22:09:41.705Z,101099.44
2017-08-19T22:12:10.030Z,101102.51
2017-08-19T22:14:38.365Z,101103.92
2017-08-19T22:17:06.739Z,101098.84
2017-08-19T22:19:35.117Z,101099.51
2017-08-19T22:22:03.485Z,101096.47
2017-08-19T22:24:31.868Z,101098.75
2017-08-19T22:27:00.177Z,101098.44
2017-08-19T22:29:29.340Z,101098.53
2017-08-19T22:31:57.632Z,101097.25
2017-08-19T22:34:25.998Z,101090.16
2017-08-19T22:36:54.311Z,101098.10
2017-08-19T22:39:23.485Z,101102.98
2017-08-19T22:41:51.793Z,101099.78
2017-08-19T22:44:20.941Z,101096.02
2017-08-19T22:46:49.334Z,101089.80
2017-08-19T22:49:17.720Z,101097.00
2017-08-19T22:51:46.095Z,101086.02
2017-08-19T22:54:14.455Z,101085.13
2017-08-19T22:56:43.348Z,101092.77
2017-08-19T22:59:11.720Z,101095.20
2017-08-19T23:01:40.073Z,101095.58
2017-08-19T23:04:08.360Z,101088.84
2017-08-19T23:06:36.657Z,101085.59
2017-08-19T23:09:04.956Z,101092.44
2017-08-19T23:11:33.248Z,101094.59
2017-08-19T23:14:02.329Z,101096.48
2017-08-19T23:16:30.641Z,101095.31
2017-08-19T23:18:58.942Z,101097.73
2017-08-19T23:21:27.344Z,101088.39
2017-08-19T23:23:55.654Z,101085.00
2017-08-19T23:26:23.970Z,101081.81
2017-08-19T23:28:52.276Z,101076.44
2017-08-19T23:31:20.648Z,101082.42
2017-08-19T23:33:48.936Z,101077.77
2017-08-19T23:36:17.278Z,101080.61
2017-08-19T23:38:45.605Z,101087.45
2017-08-19T23:41:13.965Z,101087.69
2017-08-19T23:43:42.346Z,101088.98
2017-08-19T23:46:10.650Z,101092.49
2017-08-19T23:48:39.720Z,101091.63
2017-08-19T23:51:08.066Z,101092.09
2017-08-19T23:53:36.360Z,101091.91
2017-08-19T23:56:04.683Z,101094.44
2017-08-19T23:58:33.838Z,101099.31
